sensor_id;sensor_type;location;lat;lon;timestamp;P1;durP1;ratioP1;P2;durP2;ratioP2
2055;SDS011;1033;52.560;13.374;2022-10-16T00:00:14;3.60;;;2.30;;
2055;SDS011;1033;52.560;13.374;2022-10-16T00:02:43;4.97;;;4.27;;
2055;SDS011;1033;52.560;13.374;2022-10-16T00:05:17;4.43;;;3.40;;
2055;SDS011;1033;52.560;13.374;2022-10-16T00:07:45;4.70;;;4.20;;
2055;SDS011;1033;52.560;13.374;2022-10-16T00:10:16;3.80;;;3.50;;
2055;SDS011;1033;52.560;13.374;2022-10-16T00:12:45;7.00;;;5.60;;
2055;SDS011;1033;52.560;13.374;2022-10-16T00:15:15;4.70;;;4.13;;
2055;SDS011;1033;52.560;13.374;2022-10-16T00:17:44;3.83;;;2.60;;
2055;SDS011;1033;52.560;13.374;2022-10-16T00:20:13;2.70;;;2.37;;
2055;SDS011;1033;52.560;13.374;2022-10-16T00:22:42;6.27;;;3.07;;
2055;SDS011;1033;52.560;13.374;2022-10-16T00:25:11;4.23;;;2.50;;
2055;SDS011;1033;52.560;13.374;2022-10-16T00:27:41;3.17;;;2.70;;
2055;SDS011;1033;52.560;13.374;2022-10-16T00:30:10;3.47;;;2.20;;
2055;SDS011;1033;52.560;13.374;2022-10-16T00:32:39;3.00;;;2.60;;
2055;SDS011;1033;52.560;13.374;2022-10-16T00:35:08;2.43;;;2.10;;
2055;SDS011;1033;52.560;13.374;2022-10-16T00:37:37;3.10;;;2.80;;
2055;SDS011;1033;52.560;13.374;2022-10-16T00:40:06;3.90;;;2.57;;
2055;SDS011;1033;52.560;13.374;2022-10-16T00:42:36;3.10;;;2.77;;
2055;SDS011;1033;52.560;13.374;2022-10-16T00:45:08;3.13;;;2.20;;
2055;SDS011;1033;52.560;13.374;2022-10-16T00:47:38;3.30;;;2.43;;
2055;SDS011;1033;52.560;13.374;2022-10-16T00:50:16;5.80;;;2.50;;
2055;SDS011;1033;52.560;13.374;2022-10-16T00:52:53;4.70;;;2.93;;
2055;SDS011;1033;52.560;13.374;2022-10-16T00:55:25;3.80;;;1.90;;
2055;SDS011;1033;52.560;13.374;2022-10-16T00:57:56;2.70;;;2.40;;
2055;SDS011;1033;52.560;13.374;2022-10-16T01:00:27;3.00;;;2.13;;
2055;SDS011;1033;52.560;13.374;2022-10-16T01:02:57;2.17;;;1.70;;
2055;SDS011;1033;52.560;13.374;2022-10-16T01:05:30;2.30;;;2.07;;
2055;SDS011;1033;52.560;13.374;2022-10-16T01:08:12;1.90;;;1.70;;
2055;SDS011;1033;52.560;13.374;2022-10-16T01:10:52;2.37;;;1.97;;
2055;SDS011;1033;52.560;13.374;2022-10-16T01:13:30;2.67;;;2.30;;
2055;SDS011;1033;52.560;13.374;2022-10-16T01:16:09;2.13;;;1.93;;
2055;SDS011;1033;52.560;13.374;2022-10-16T01:18:45;3.23;;;2.60;;
2055;SDS011;1033;52.560;13.374;2022-10-16T01:21:22;3.43;;;2.30;;
2055;SDS011;1033;52.560;13.374;2022-10-16T01:23:59;3.10;;;2.27;;
2055;SDS011;1033;52.560;13.374;2022-10-16T01:26:47;2.70;;;1.93;;
2055;SDS011;1033;52.560;13.374;2022-10-16T01:29:36;3.43;;;2.30;;
2055;SDS011;1033;52.560;13.374;2022-10-16T01:32:18;3.00;;;2.70;;
2055;SDS011;1033;52.560;13.374;2022-10-16T01:34:58;2.43;;;2.23;;
2055;SDS011;1033;52.560;13.374;2022-10-16T01:37:33;2.70;;;2.40;;
2055;SDS011;1033;52.560;13.374;2022-10-16T01:40:09;2.70;;;2.40;;
2055;SDS011;1033;52.560;13.374;2022-10-16T01:42:44;3.10;;;1.97;;
2055;SDS011;1033;52.560;13.374;2022-10-16T01:45:20;1.90;;;1.57;;
2055;SDS011;1033;52.560;13.374;2022-10-16T01:47:49;2.63;;;2.20;;
2055;SDS011;1033;52.560;13.374;2022-10-16T01:50:21;2.83;;;2.30;;
2055;SDS011;1033;52.560;13.374;2022-10-16T01:52:51;2.60;;;2.13;;
2055;SDS011;1033;52.560;13.374;2022-10-16T01:55:25;2.00;;;1.80;;
2055;SDS011;1033;52.560;13.374;2022-10-16T01:58:04;4.10;;;2.70;;
2055;SDS011;1033;52.560;13.374;2022-10-16T02:00:37;2.43;;;2.17;;
2055;SDS011;1033;52.560;13.374;2022-10-16T02:03:10;2.37;;;2.03;;
2055;SDS011;1033;52.560;13.374;2022-10-16T02:05:45;2.57;;;2.10;;
2055;SDS011;1033;52.560;13.374;2022-10-16T02:08:19;2.43;;;1.83;;
2055;SDS011;1033;52.560;13.374;2022-10-16T02:10:50;3.20;;;2.03;;
2055;SDS011;1033;52.560;13.374;2022-10-16T02:13:21;2.40;;;1.93;;
2055;SDS011;1033;52.560;13.374;2022-10-16T02:15:57;2.53;;;1.93;;
2055;SDS011;1033;52.560;13.374;2022-10-16T02:18:26;2.30;;;2.10;;
2055;SDS011;1033;52.560;13.374;2022-10-16T02:20:58;2.00;;;1.80;;
2055;SDS011;1033;52.560;13.374;2022-10-16T02:23:37;3.23;;;2.20;;
2055;SDS011;1033;52.560;13.374;2022-10-16T02:26:19;2.03;;;1.70;;
2055;SDS011;1033;52.560;13.374;2022-10-16T02:29:00;2.23;;;2.03;;
2055;SDS011;1033;52.560;13.374;2022-10-16T02:31:38;3.80;;;2.50;;
2055;SDS011;1033;52.560;13.374;2022-10-16T02:34:15;2.30;;;1.77;;
2055;SDS011;1033;52.560;13.374;2022-10-16T02:36:48;2.10;;;1.90;;
2055;SDS011;1033;52.560;13.374;2022-10-16T02:39:19;2.30;;;2.10;;
2055;SDS011;1033;52.560;13.374;2022-10-16T02:41:49;2.03;;;1.77;;
2055;SDS011;1033;52.560;13.374;2022-10-16T02:44:19;2.53;;;2.00;;
2055;SDS011;1033;52.560;13.374;2022-10-16T02:46:48;2.90;;;1.90;;
2055;SDS011;1033;52.560;13.374;2022-10-16T02:49:17;2.40;;;2.07;;
2055;SDS011;1033;52.560;13.374;2022-10-16T02:51:45;3.37;;;2.10;;
2055;SDS011;1033;52.560;13.374;2022-10-16T02:54:14;3.07;;;1.87;;
2055;SDS011;1033;52.560;13.374;2022-10-16T02:56:43;2.20;;;2.00;;
2055;SDS011;1033;52.560;13.374;2022-10-16T02:59:11;2.50;;;2.20;;
2055;SDS011;1033;52.560;13.374;2022-10-16T03:01:42;2.20;;;2.00;;
2055;SDS011;1033;52.560;13.374;2022-10-16T03:04:11;2.33;;;2.00;;
2055;SDS011;1033;52.560;13.374;2022-10-16T03:06:39;4.30;;;1.90;;
2055;SDS011;1033;52.560;13.374;2022-10-16T03:09:08;4.17;;;2.30;;
2055;SDS011;1033;52.560;13.374;2022-10-16T03:11:36;2.10;;;1.90;;
2055;SDS011;1033;52.560;13.374;2022-10-16T03:14:05;3.27;;;2.13;;
2055;SDS011;1033;52.560;13.374;2022-10-16T03:16:34;3.10;;;2.10;;
2055;SDS011;1033;52.560;13.374;2022-10-16T03:19:04;2.50;;;1.97;;
2055;SDS011;1033;52.560;13.374;2022-10-16T03:21:33;3.17;;;1.80;;
2055;SDS011;1033;52.560;13.374;2022-10-16T03:24:02;2.43;;;2.23;;
2055;SDS011;1033;52.560;13.374;2022-10-16T03:26:31;4.60;;;1.83;;
2055;SDS011;1033;52.560;13.374;2022-10-16T03:29:00;3.70;;;1.90;;
2055;SDS011;1033;52.560;13.374;2022-10-16T03:31:30;2.90;;;2.53;;
2055;SDS011;1033;52.560;13.374;2022-10-16T03:33:58;3.03;;;1.73;;
2055;SDS011;1033;52.560;13.374;2022-10-16T03:36:33;2.10;;;1.90;;
2055;SDS011;1033;52.560;13.374;2022-10-16T03:39:02;3.40;;;2.47;;
2055;SDS011;1033;52.560;13.374;2022-10-16T03:41:31;3.00;;;1.93;;
2055;SDS011;1033;52.560;13.374;2022-10-16T03:43:59;2.73;;;2.50;;
2055;SDS011;1033;52.560;13.374;2022-10-16T03:46:28;3.10;;;2.73;;
2055;SDS011;1033;52.560;13.374;2022-10-16T03:48:57;2.43;;;2.23;;
2055;SDS011;1033;52.560;13.374;2022-10-16T03:51:26;2.30;;;2.10;;
2055;SDS011;1033;52.560;13.374;2022-10-16T03:53:56;3.17;;;2.03;;
2055;SDS011;1033;52.560;13.374;2022-10-16T03:56:25;2.90;;;2.13;;
2055;SDS011;1033;52.560;13.374;2022-10-16T03:58:54;2.40;;;1.90;;
2055;SDS011;1033;52.560;13.374;2022-10-16T04:01:22;3.00;;;2.40;;
2055;SDS011;1033;52.560;13.374;2022-10-16T04:03:52;2.43;;;2.23;;
2055;SDS011;1033;52.560;13.374;2022-10-16T04:06:21;3.33;;;2.47;;
2055;SDS011;1033;52.560;13.374;2022-10-16T04:08:49;2.97;;;2.70;;
2055;SDS011;1033;52.560;13.374;2022-10-16T04:11:19;2.17;;;1.93;;
2055;SDS011;1033;52.560;13.374;2022-10-16T04:13:48;3.63;;;2.20;;
2055;SDS011;1033;52.560;13.374;2022-10-16T04:16:17;1.90;;;1.70;;
2055;SDS011;1033;52.560;13.374;2022-10-16T04:18:45;2.40;;;2.20;;
2055;SDS011;1033;52.560;13.374;2022-10-16T04:21:14;2.27;;;2.03;;
2055;SDS011;1033;52.560;13.374;2022-10-16T04:23:43;2.17;;;1.97;;
2055;SDS011;1033;52.560;13.374;2022-10-16T04:26:12;4.03;;;2.13;;
2055;SDS011;1033;52.560;13.374;2022-10-16T04:28:42;3.80;;;2.37;;
2055;SDS011;1033;52.560;13.374;2022-10-16T04:31:11;6.97;;;1.93;;
2055;SDS011;1033;52.560;13.374;2022-10-16T04:33:41;2.67;;;2.07;;
2055;SDS011;1033;52.560;13.374;2022-10-16T04:36:10;4.27;;;2.07;;
2055;SDS011;1033;52.560;13.374;2022-10-16T04:38:40;2.50;;;2.27;;
2055;SDS011;1033;52.560;13.374;2022-10-16T04:41:08;3.10;;;2.50;;
2055;SDS011;1033;52.560;13.374;2022-10-16T04:43:37;1.93;;;1.70;;
2055;SDS011;1033;52.560;13.374;2022-10-16T04:46:07;2.10;;;1.93;;
2055;SDS011;1033;52.560;13.374;2022-10-16T04:48:36;2.80;;;2.10;;
2055;SDS011;1033;52.560;13.374;2022-10-16T04:51:05;2.77;;;2.20;;
2055;SDS011;1033;52.560;13.374;2022-10-16T04:53:34;3.13;;;2.83;;
2055;SDS011;1033;52.560;13.374;2022-10-16T04:56:03;2.50;;;2.30;;
2055;SDS011;1033;52.560;13.374;2022-10-16T04:58:32;2.57;;;2.30;;
2055;SDS011;1033;52.560;13.374;2022-10-16T05:01:01;3.10;;;2.13;;
2055;SDS011;1033;52.560;13.374;2022-10-16T05:03:31;5.00;;;2.40;;
2055;SDS011;1033;52.560;13.374;2022-10-16T05:06:00;2.90;;;2.70;;
2055;SDS011;1033;52.560;13.374;2022-10-16T05:08:30;4.07;;;2.90;;
2055;SDS011;1033;52.560;13.374;2022-10-16T05:11:02;2.63;;;2.40;;
2055;SDS011;1033;52.560;13.374;2022-10-16T05:13:31;3.90;;;2.87;;
2055;SDS011;1033;52.560;13.374;2022-10-16T05:16:00;3.30;;;2.67;;
2055;SDS011;1033;52.560;13.374;2022-10-16T05:18:29;4.37;;;2.50;;
2055;SDS011;1033;52.560;13.374;2022-10-16T05:20:59;3.27;;;2.53;;
2055;SDS011;1033;52.560;13.374;2022-10-16T05:23:28;3.00;;;2.70;;
2055;SDS011;1033;52.560;13.374;2022-10-16T05:25:58;2.60;;;2.07;;
2055;SDS011;1033;52.560;13.374;2022-10-16T05:28:28;4.00;;;2.90;;
2055;SDS011;1033;52.560;13.374;2022-10-16T05:30:58;3.57;;;2.90;;
2055;SDS011;1033;52.560;13.374;2022-10-16T05:33:27;2.83;;;2.60;;
2055;SDS011;1033;52.560;13.374;2022-10-16T05:36:00;2.70;;;1.97;;
2055;SDS011;1033;52.560;13.374;2022-10-16T05:38:29;3.00;;;2.70;;
2055;SDS011;1033;52.560;13.374;2022-10-16T05:40:58;7.83;;;2.23;;
2055;SDS011;1033;52.560;13.374;2022-10-16T05:43:27;4.43;;;2.70;;
2055;SDS011;1033;52.560;13.374;2022-10-16T05:45:58;2.60;;;2.23;;
2055;SDS011;1033;52.560;13.374;2022-10-16T05:48:29;2.53;;;2.33;;
2055;SDS011;1033;52.560;13.374;2022-10-16T05:51:01;2.50;;;2.30;;
2055;SDS011;1033;52.560;13.374;2022-10-16T05:53:34;2.70;;;2.50;;
2055;SDS011;1033;52.560;13.374;2022-10-16T05:56:05;2.53;;;2.33;;
2055;SDS011;1033;52.560;13.374;2022-10-16T05:58:36;3.13;;;2.83;;
2055;SDS011;1033;52.560;13.374;2022-10-16T06:01:07;7.80;;;2.53;;
2055;SDS011;1033;52.560;13.374;2022-10-16T06:03:40;4.77;;;3.27;;
2055;SDS011;1033;52.560;13.374;2022-10-16T06:06:11;3.50;;;2.73;;
2055;SDS011;1033;52.560;13.374;2022-10-16T06:08:42;2.33;;;2.10;;
2055;SDS011;1033;52.560;13.374;2022-10-16T06:11:14;4.20;;;2.80;;
2055;SDS011;1033;52.560;13.374;2022-10-16T06:13:49;3.70;;;2.50;;
2055;SDS011;1033;52.560;13.374;2022-10-16T06:16:18;6.13;;;3.20;;
2055;SDS011;1033;52.560;13.374;2022-10-16T06:18:47;6.23;;;3.03;;
2055;SDS011;1033;52.560;13.374;2022-10-16T06:21:21;3.43;;;2.20;;
2055;SDS011;1033;52.560;13.374;2022-10-16T06:23:52;2.40;;;2.10;;
2055;SDS011;1033;52.560;13.374;2022-10-16T06:26:23;3.30;;;2.40;;
2055;SDS011;1033;52.560;13.374;2022-10-16T06:28:54;4.00;;;2.63;;
2055;SDS011;1033;52.560;13.374;2022-10-16T06:31:25;4.83;;;2.70;;
2055;SDS011;1033;52.560;13.374;2022-10-16T06:33:57;2.40;;;2.20;;
2055;SDS011;1033;52.560;13.374;2022-10-16T06:36:28;3.10;;;2.60;;
2055;SDS011;1033;52.560;13.374;2022-10-16T06:38:57;3.20;;;2.13;;
2055;SDS011;1033;52.560;13.374;2022-10-16T06:41:25;3.50;;;3.00;;
2055;SDS011;1033;52.560;13.374;2022-10-16T06:43:55;3.30;;;3.00;;
2055;SDS011;1033;52.560;13.374;2022-10-16T06:46:25;2.90;;;2.70;;
2055;SDS011;1033;52.560;13.374;2022-10-16T06:48:55;3.47;;;3.10;;
2055;SDS011;1033;52.560;13.374;2022-10-16T06:51:24;5.00;;;4.07;;
2055;SDS011;1033;52.560;13.374;2022-10-16T06:53:55;2.80;;;2.50;;
2055;SDS011;1033;52.560;13.374;2022-10-16T06:56:30;6.40;;;3.10;;
2055;SDS011;1033;52.560;13.374;2022-10-16T06:59:00;4.03;;;3.17;;
2055;SDS011;1033;52.560;13.374;2022-10-16T07:01:29;4.93;;;4.47;;
2055;SDS011;1033;52.560;13.374;2022-10-16T07:03:59;3.20;;;2.87;;
2055;SDS011;1033;52.560;13.374;2022-10-16T07:06:31;3.17;;;2.67;;
2055;SDS011;1033;52.560;13.374;2022-10-16T07:09:03;2.87;;;2.50;;
2055;SDS011;1033;52.560;13.374;2022-10-16T07:11:33;3.47;;;2.40;;
2055;SDS011;1033;52.560;13.374;2022-10-16T07:14:03;7.83;;;2.97;;
2055;SDS011;1033;52.560;13.374;2022-10-16T07:16:33;3.30;;;3.00;;
2055;SDS011;1033;52.560;13.374;2022-10-16T07:19:02;3.33;;;2.60;;
2055;SDS011;1033;52.560;13.374;2022-10-16T07:21:33;3.00;;;2.70;;
2055;SDS011;1033;52.560;13.374;2022-10-16T07:24:05;2.73;;;2.40;;
2055;SDS011;1033;52.560;13.374;2022-10-16T07:26:39;2.90;;;2.17;;
2055;SDS011;1033;52.560;13.374;2022-10-16T07:29:11;2.77;;;2.47;;
2055;SDS011;1033;52.560;13.374;2022-10-16T07:31:43;4.00;;;2.60;;
2055;SDS011;1033;52.560;13.374;2022-10-16T07:34:13;7.13;;;3.13;;
2055;SDS011;1033;52.560;13.374;2022-10-16T07:36:46;3.80;;;2.93;;
2055;SDS011;1033;52.560;13.374;2022-10-16T07:39:18;4.53;;;3.27;;
2055;SDS011;1033;52.560;13.374;2022-10-16T07:41:47;3.83;;;3.33;;
2055;SDS011;1033;52.560;13.374;2022-10-16T07:44:16;3.17;;;2.50;;
2055;SDS011;1033;52.560;13.374;2022-10-16T07:46:45;2.97;;;2.67;;
2055;SDS011;1033;52.560;13.374;2022-10-16T07:49:14;1.93;;;1.63;;
2055;SDS011;1033;52.560;13.374;2022-10-16T07:51:44;2.43;;;1.90;;
2055;SDS011;1033;52.560;13.374;2022-10-16T07:54:13;3.70;;;2.23;;
2055;SDS011;1033;52.560;13.374;2022-10-16T07:56:43;2.53;;;2.10;;
2055;SDS011;1033;52.560;13.374;2022-10-16T07:59:12;7.03;;;2.80;;
2055;SDS011;1033;52.560;13.374;2022-10-16T08:01:42;1.87;;;1.70;;
2055;SDS011;1033;52.560;13.374;2022-10-16T08:04:11;2.17;;;1.97;;
2055;SDS011;1033;52.560;13.374;2022-10-16T08:06:40;2.70;;;2.10;;
2055;SDS011;1033;52.560;13.374;2022-10-16T08:09:09;2.37;;;1.90;;
2055;SDS011;1033;52.560;13.374;2022-10-16T08:11:38;2.37;;;2.17;;
2055;SDS011;1033;52.560;13.374;2022-10-16T08:14:09;2.40;;;1.60;;
2055;SDS011;1033;52.560;13.374;2022-10-16T08:16:38;2.83;;;1.80;;
2055;SDS011;1033;52.560;13.374;2022-10-16T08:19:07;2.40;;;2.00;;
2055;SDS011;1033;52.560;13.374;2022-10-16T08:21:36;2.27;;;1.87;;
2055;SDS011;1033;52.560;13.374;2022-10-16T08:24:05;3.60;;;1.90;;
2055;SDS011;1033;52.560;13.374;2022-10-16T08:26:35;2.33;;;1.90;;
2055;SDS011;1033;52.560;13.374;2022-10-16T08:29:04;2.13;;;1.93;;
2055;SDS011;1033;52.560;13.374;2022-10-16T08:31:34;4.67;;;1.70;;
2055;SDS011;1033;52.560;13.374;2022-10-16T08:34:03;3.07;;;1.67;;
2055;SDS011;1033;52.560;13.374;2022-10-16T08:36:34;2.70;;;2.50;;
2055;SDS011;1033;52.560;13.374;2022-10-16T08:39:04;4.43;;;1.83;;
2055;SDS011;1033;52.560;13.374;2022-10-16T08:41:39;3.33;;;2.53;;
2055;SDS011;1033;52.560;13.374;2022-10-16T08:47:58;3.10;;;2.40;;
2055;SDS011;1033;52.560;13.374;2022-10-16T08:53:36;2.00;;;1.60;;
2055;SDS011;1033;52.560;13.374;2022-10-16T08:56:11;2.47;;;2.27;;
2055;SDS011;1033;52.560;13.374;2022-10-16T08:58:40;3.80;;;1.87;;
2055;SDS011;1033;52.560;13.374;2022-10-16T09:01:11;2.60;;;1.90;;
2055;SDS011;1033;52.560;13.374;2022-10-16T09:03:48;2.27;;;1.77;;
2055;SDS011;1033;52.560;13.374;2022-10-16T09:06:31;1.90;;;1.60;;
2055;SDS011;1033;52.560;13.374;2022-10-16T09:09:17;2.30;;;1.63;;
2055;SDS011;1033;52.560;13.374;2022-10-16T09:12:02;1.70;;;1.37;;
2055;SDS011;1033;52.560;13.374;2022-10-16T09:14:45;2.73;;;2.53;;
2055;SDS011;1033;52.560;13.374;2022-10-16T09:17:24;3.47;;;2.97;;
2055;SDS011;1033;52.560;13.374;2022-10-16T09:20:08;3.03;;;2.20;;
2055;SDS011;1033;52.560;13.374;2022-10-16T09:23:12;4.67;;;2.23;;
2055;SDS011;1033;52.560;13.374;2022-10-16T09:25:45;2.40;;;1.73;;
2055;SDS011;1033;52.560;13.374;2022-10-16T09:28:17;4.27;;;2.30;;
2055;SDS011;1033;52.560;13.374;2022-10-16T09:30:47;2.90;;;2.30;;
2055;SDS011;1033;52.560;13.374;2022-10-16T09:33:18;2.10;;;1.83;;
2055;SDS011;1033;52.560;13.374;2022-10-16T09:35:53;2.60;;;2.40;;
2055;SDS011;1033;52.560;13.374;2022-10-16T09:38:27;2.37;;;2.17;;
2055;SDS011;1033;52.560;13.374;2022-10-16T09:40:57;2.20;;;2.00;;
2055;SDS011;1033;52.560;13.374;2022-10-16T09:43:31;6.23;;;2.23;;
2055;SDS011;1033;52.560;13.374;2022-10-16T09:46:07;2.97;;;1.80;;
2055;SDS011;1033;52.560;13.374;2022-10-16T09:48:49;2.37;;;1.60;;
2055;SDS011;1033;52.560;13.374;2022-10-16T09:51:23;2.17;;;1.90;;
2055;SDS011;1033;52.560;13.374;2022-10-16T09:53:55;2.07;;;1.60;;
2055;SDS011;1033;52.560;13.374;2022-10-16T09:56:27;2.30;;;1.77;;
2055;SDS011;1033;52.560;13.374;2022-10-16T09:58:59;2.10;;;2.00;;
2055;SDS011;1033;52.560;13.374;2022-10-16T10:01:31;2.40;;;1.60;;
2055;SDS011;1033;52.560;13.374;2022-10-16T10:04:05;4.37;;;1.80;;
2055;SDS011;1033;52.560;13.374;2022-10-16T10:06:37;1.93;;;1.47;;
2055;SDS011;1033;52.560;13.374;2022-10-16T10:09:15;2.47;;;1.57;;
2055;SDS011;1033;52.560;13.374;2022-10-16T10:11:48;2.13;;;1.67;;
2055;SDS011;1033;52.560;13.374;2022-10-16T10:14:21;2.10;;;1.80;;
2055;SDS011;1033;52.560;13.374;2022-10-16T10:16:53;1.93;;;1.53;;
2055;SDS011;1033;52.560;13.374;2022-10-16T10:19:38;1.93;;;1.73;;
2055;SDS011;1033;52.560;13.374;2022-10-16T10:22:21;1.97;;;1.57;;
2055;SDS011;1033;52.560;13.374;2022-10-16T10:27:48;1.90;;;1.70;;
2055;SDS011;1033;52.560;13.374;2022-10-16T10:30:32;2.23;;;1.30;;
2055;SDS011;1033;52.560;13.374;2022-10-16T10:33:14;6.13;;;1.60;;
2055;SDS011;1033;52.560;13.374;2022-10-16T10:35:51;2.17;;;1.73;;
2055;SDS011;1033;52.560;13.374;2022-10-16T10:38:30;2.00;;;1.30;;
2055;SDS011;1033;52.560;13.374;2022-10-16T10:41:12;1.70;;;1.60;;
2055;SDS011;1033;52.560;13.374;2022-10-16T10:43:58;2.30;;;1.70;;
2055;SDS011;1033;52.560;13.374;2022-10-16T10:46:37;1.93;;;1.67;;
2055;SDS011;1033;52.560;13.374;2022-10-16T10:49:27;1.70;;;1.60;;
2055;SDS011;1033;52.560;13.374;2022-10-16T10:52:15;6.50;;;1.60;;
2055;SDS011;1033;52.560;13.374;2022-10-16T10:54:56;4.03;;;2.07;;
2055;SDS011;1033;52.560;13.374;2022-10-16T10:57:35;2.63;;;1.77;;
2055;SDS011;1033;52.560;13.374;2022-10-16T11:00:17;4.73;;;1.40;;
2055;SDS011;1033;52.560;13.374;2022-10-16T11:02:55;2.10;;;1.67;;
2055;SDS011;1033;52.560;13.374;2022-10-16T11:05:39;4.63;;;1.60;;
2055;SDS011;1033;52.560;13.374;2022-10-16T11:08:11;3.30;;;1.60;;
2055;SDS011;1033;52.560;13.374;2022-10-16T11:10:47;2.40;;;1.63;;
2055;SDS011;1033;52.560;13.374;2022-10-16T11:13:23;2.93;;;1.83;;
2055;SDS011;1033;52.560;13.374;2022-10-16T11:15:58;1.60;;;1.50;;
2055;SDS011;1033;52.560;13.374;2022-10-16T11:18:33;1.83;;;1.60;;
2055;SDS011;1033;52.560;13.374;2022-10-16T11:21:11;2.40;;;1.50;;
2055;SDS011;1033;52.560;13.374;2022-10-16T11:23:44;2.37;;;1.67;;
2055;SDS011;1033;52.560;13.374;2022-10-16T11:26:23;4.50;;;1.80;;
2055;SDS011;1033;52.560;13.374;2022-10-16T11:28:55;2.17;;;1.60;;
2055;SDS011;1033;52.560;13.374;2022-10-16T11:31:28;2.50;;;1.60;;
2055;SDS011;1033;52.560;13.374;2022-10-16T11:34:04;3.43;;;1.80;;
2055;SDS011;1033;52.560;13.374;2022-10-16T11:36:44;2.10;;;1.40;;
2055;SDS011;1033;52.560;13.374;2022-10-16T11:39:19;2.27;;;1.33;;
2055;SDS011;1033;52.560;13.374;2022-10-16T11:41:52;3.00;;;1.50;;
2055;SDS011;1033;52.560;13.374;2022-10-16T11:44:27;5.23;;;3.70;;
2055;SDS011;1033;52.560;13.374;2022-10-16T11:47:08;2.27;;;1.70;;
2055;SDS011;1033;52.560;13.374;2022-10-16T11:50:14;1.83;;;1.43;;
2055;SDS011;1033;52.560;13.374;2022-10-16T11:52:51;1.40;;;1.13;;
2055;SDS011;1033;52.560;13.374;2022-10-16T11:55:27;1.57;;;1.33;;
2055;SDS011;1033;52.560;13.374;2022-10-16T11:58:03;2.60;;;1.47;;
2055;SDS011;1033;52.560;13.374;2022-10-16T12:00:37;1.53;;;1.20;;
2055;SDS011;1033;52.560;13.374;2022-10-16T12:03:15;1.97;;;1.50;;
2055;SDS011;1033;52.560;13.374;2022-10-16T12:06:12;1.40;;;1.10;;
2055;SDS011;1033;52.560;13.374;2022-10-16T12:08:51;2.63;;;1.13;;
2055;SDS011;1033;52.560;13.374;2022-10-16T12:11:30;1.50;;;1.10;;
2055;SDS011;1033;52.560;13.374;2022-10-16T12:14:16;3.80;;;1.37;;
2055;SDS011;1033;52.560;13.374;2022-10-16T12:17:24;3.03;;;1.40;;
2055;SDS011;1033;52.560;13.374;2022-10-16T12:20:17;1.80;;;1.10;;
2055;SDS011;1033;52.560;13.374;2022-10-16T12:22:54;5.13;;;1.13;;
2055;SDS011;1033;52.560;13.374;2022-10-16T12:25:26;4.10;;;1.00;;
2055;SDS011;1033;52.560;13.374;2022-10-16T12:27:58;2.40;;;1.30;;
2055;SDS011;1033;52.560;13.374;2022-10-16T12:30:32;1.70;;;0.97;;
2055;SDS011;1033;52.560;13.374;2022-10-16T12:33:03;1.20;;;0.80;;
2055;SDS011;1033;52.560;13.374;2022-10-16T12:35:34;1.90;;;1.00;;
2055;SDS011;1033;52.560;13.374;2022-10-16T12:38:14;1.40;;;0.97;;
2055;SDS011;1033;52.560;13.374;2022-10-16T12:40:46;2.07;;;1.23;;
2055;SDS011;1033;52.560;13.374;2022-10-16T12:43:34;1.83;;;1.10;;
2055;SDS011;1033;52.560;13.374;2022-10-16T12:46:20;5.23;;;1.10;;
2055;SDS011;1033;52.560;13.374;2022-10-16T12:48:51;2.80;;;1.30;;
2055;SDS011;1033;52.560;13.374;2022-10-16T12:51:34;1.60;;;1.07;;
2055;SDS011;1033;52.560;13.374;2022-10-16T12:54:10;1.17;;;0.77;;
2055;SDS011;1033;52.560;13.374;2022-10-16T12:56:45;3.10;;;0.90;;
2055;SDS011;1033;52.560;13.374;2022-10-16T12:59:28;1.97;;;0.83;;
2055;SDS011;1033;52.560;13.374;2022-10-16T13:02:14;1.63;;;0.90;;
2055;SDS011;1033;52.560;13.374;2022-10-16T13:05:05;2.10;;;0.93;;
2055;SDS011;1033;52.560;13.374;2022-10-16T13:07:50;2.77;;;1.00;;
2055;SDS011;1033;52.560;13.374;2022-10-16T13:10:28;1.87;;;0.90;;
2055;SDS011;1033;52.560;13.374;2022-10-16T13:13:12;1.97;;;0.90;;
2055;SDS011;1033;52.560;13.374;2022-10-16T13:15:57;1.30;;;0.80;;
2055;SDS011;1033;52.560;13.374;2022-10-16T13:18:51;1.80;;;0.83;;
2055;SDS011;1033;52.560;13.374;2022-10-16T13:21:33;1.33;;;0.83;;
2055;SDS011;1033;52.560;13.374;2022-10-16T13:24:15;2.27;;;1.30;;
2055;SDS011;1033;52.560;13.374;2022-10-16T13:26:55;9.57;;;1.10;;
2055;SDS011;1033;52.560;13.374;2022-10-16T13:29:32;1.50;;;0.90;;
2055;SDS011;1033;52.560;13.374;2022-10-16T13:32:09;2.90;;;2.47;;
2055;SDS011;1033;52.560;13.374;2022-10-16T13:34:45;1.73;;;1.00;;
2055;SDS011;1033;52.560;13.374;2022-10-16T13:37:16;1.17;;;0.70;;
2055;SDS011;1033;52.560;13.374;2022-10-16T13:39:47;2.20;;;1.43;;
2055;SDS011;1033;52.560;13.374;2022-10-16T13:42:20;1.40;;;1.00;;
2055;SDS011;1033;52.560;13.374;2022-10-16T14:03:59;2.20;;;1.20;;
2055;SDS011;1033;52.560;13.374;2022-10-16T14:16:31;4.50;;;1.00;;
2055;SDS011;1033;52.560;13.374;2022-10-16T14:19:03;1.70;;;0.80;;
2055;SDS011;1033;52.560;13.374;2022-10-16T14:21:35;2.40;;;1.13;;
2055;SDS011;1033;52.560;13.374;2022-10-16T14:24:11;1.40;;;1.20;;
2055;SDS011;1033;52.560;13.374;2022-10-16T14:26:41;1.83;;;1.23;;
2055;SDS011;1033;52.560;13.374;2022-10-16T14:29:17;5.20;;;1.23;;
2055;SDS011;1033;52.560;13.374;2022-10-16T14:31:54;3.60;;;1.00;;
2055;SDS011;1033;52.560;13.374;2022-10-16T14:34:28;3.60;;;1.57;;
2055;SDS011;1033;52.560;13.374;2022-10-16T14:37:00;2.40;;;1.13;;
2055;SDS011;1033;52.560;13.374;2022-10-16T14:39:53;1.73;;;0.80;;
2055;SDS011;1033;52.560;13.374;2022-10-16T14:42:24;2.37;;;1.00;;
2055;SDS011;1033;52.560;13.374;2022-10-16T14:44:53;1.63;;;1.00;;
2055;SDS011;1033;52.560;13.374;2022-10-16T14:47:24;2.67;;;2.20;;
2055;SDS011;1033;52.560;13.374;2022-10-16T14:49:56;7.90;;;2.50;;
2055;SDS011;1033;52.560;13.374;2022-10-16T14:52:26;2.27;;;1.47;;
2055;SDS011;1033;52.560;13.374;2022-10-16T14:54:55;1.57;;;1.03;;
2055;SDS011;1033;52.560;13.374;2022-10-16T14:57:26;1.80;;;1.67;;
2055;SDS011;1033;52.560;13.374;2022-10-16T15:00:01;2.20;;;1.63;;
2055;SDS011;1033;52.560;13.374;2022-10-16T15:02:32;1.70;;;1.40;;
2055;SDS011;1033;52.560;13.374;2022-10-16T15:05:10;2.40;;;1.90;;
2055;SDS011;1033;52.560;13.374;2022-10-16T15:07:44;2.23;;;1.30;;
2055;SDS011;1033;52.560;13.374;2022-10-16T15:10:14;2.93;;;1.50;;
2055;SDS011;1033;52.560;13.374;2022-10-16T15:12:44;1.70;;;1.20;;
2055;SDS011;1033;52.560;13.374;2022-10-16T15:15:22;2.17;;;1.20;;
2055;SDS011;1033;52.560;13.374;2022-10-16T15:18:00;1.20;;;0.90;;
2055;SDS011;1033;52.560;13.374;2022-10-16T15:20:31;2.17;;;1.30;;
2055;SDS011;1033;52.560;13.374;2022-10-16T15:23:03;3.33;;;3.03;;
2055;SDS011;1033;52.560;13.374;2022-10-16T15:25:37;4.20;;;3.40;;
2055;SDS011;1033;52.560;13.374;2022-10-16T15:28:10;7.13;;;3.70;;
2055;SDS011;1033;52.560;13.374;2022-10-16T15:30:41;4.97;;;3.63;;
2055;SDS011;1033;52.560;13.374;2022-10-16T15:33:13;2.20;;;1.30;;
2055;SDS011;1033;52.560;13.374;2022-10-16T15:35:47;1.80;;;1.30;;
2055;SDS011;1033;52.560;13.374;2022-10-16T15:38:17;3.67;;;2.80;;
2055;SDS011;1033;52.560;13.374;2022-10-16T15:40:48;6.13;;;4.23;;
2055;SDS011;1033;52.560;13.374;2022-10-16T15:43:18;2.63;;;1.67;;
2055;SDS011;1033;52.560;13.374;2022-10-16T15:45:47;1.83;;;1.67;;
2055;SDS011;1033;52.560;13.374;2022-10-16T15:48:28;10.17;;;5.10;;
2055;SDS011;1033;52.560;13.374;2022-10-16T15:50:58;8.50;;;7.57;;
2055;SDS011;1033;52.560;13.374;2022-10-16T15:53:28;6.43;;;5.50;;
2055;SDS011;1033;52.560;13.374;2022-10-16T15:55:56;9.90;;;7.53;;
2055;SDS011;1033;52.560;13.374;2022-10-16T15:58:25;12.87;;;9.43;;
2055;SDS011;1033;52.560;13.374;2022-10-16T16:00:57;4.40;;;3.27;;
2055;SDS011;1033;52.560;13.374;2022-10-16T16:03:28;2.43;;;2.23;;
2055;SDS011;1033;52.560;13.374;2022-10-16T16:06:02;8.40;;;6.10;;
2055;SDS011;1033;52.560;13.374;2022-10-16T16:08:33;4.80;;;3.10;;
2055;SDS011;1033;52.560;13.374;2022-10-16T16:11:03;7.40;;;5.73;;
2055;SDS011;1033;52.560;13.374;2022-10-16T16:13:33;2.87;;;2.17;;
2055;SDS011;1033;52.560;13.374;2022-10-16T16:16:05;8.67;;;6.13;;